Time;durP1;ratioP1;P1;durP2;ratioP2;P2;SDS_P1;SDS_P2;PMS_P1;PMS_P2;Temp;Humidity;BMP_temperature;BMP_pressure;BME280_temperature;BME280_humidity;BME280_pressure;Samples;Min_cycle;Max_cycle;Signal;HPM_P1;HPM_P2
2023/10/10 00:00:54;;;;;;;12.40;8.73;;;;;;;-145.68;100.00;74039.50;10431664;28;20220;-67
2023/10/10 00:05:57;;;;;;;13.63;9.73;;;;;;;-145.68;100.00;74035.50;10432019;28;20219;-67
2023/10/10 00:10:58;;;;;;;11.40;8.35;;;;;;;-145.68;100.00;74035.50;10431918;28;20254;-64
2023/10/10 00:16:04;;;;;;;14.05;9.23;;;;;;;-145.68;100.00;74049.50;10431871;28;20194;-66
2023/10/10 00:21:09;;;;;;;14.48;8.52;;;;;;;-145.68;100.00;74045.50;10431600;28;20311;-66
2023/10/10 00:26:14;;;;;;;15.02;9.32;;;;;;;-145.68;100.00;74041.50;10431693;28;20339;-66
2023/10/10 00:31:21;;;;;;;15.68;10.30;;;;;;;-145.68;100.00;74055.50;10431626;28;20299;-65
2023/10/10 00:36:27;;;;;;;14.57;10.75;;;;;;;-145.68;100.00;74047.50;10431380;28;20220;-66
2023/10/10 00:41:28;;;;;;;14.82;10.23;;;;;;;-145.68;100.00;74027.50;10439397;28;20240;-64
2023/10/10 00:46:29;;;;;;;17.75;12.10;;;;;;;-145.68;100.00;74031.50;10439656;28;20238;-66
2023/10/10 00:51:31;;;;;;;15.52;10.95;;;;;;;-145.68;100.00;74027.50;10421623;28;20381;-64
2023/10/10 00:56:32;;;;;;;16.65;12.63;;;;;;;-145.68;100.00;74029.50;10439418;28;20238;-65
2023/10/10 01:01:33;;;;;;;20.90;12.15;;;;;;;-145.68;100.00;74029.50;10438622;28;20216;-66
2023/10/10 01:06:39;;;;;;;21.20;12.25;;;;;;;-145.68;100.00;74019.50;10439085;28;20208;-65
2023/10/10 01:11:42;;;;;;;18.90;13.38;;;;;;;-145.68;100.00;74013.53;10437193;28;20235;-64
2023/10/10 01:16:43;;;;;;;16.08;12.77;;;;;;;-145.68;100.00;74013.53;10437289;28;21560;-65
2023/10/10 01:21:50;;;;;;;17.40;10.40;;;;;;;-145.68;100.00;74021.50;10438158;28;20220;-66
2023/10/10 01:26:51;;;;;;;12.52;8.82;;;;;;;-145.68;100.00;74015.50;10438351;28;20825;-65
2023/10/10 01:31:52;;;;;;;11.68;7.50;;;;;;;-145.68;100.00;74009.53;10437914;28;20209;-65
2023/10/10 01:36:54;;;;;;;11.93;7.03;;;;;;;-145.68;100.00;74011.53;10437965;28;20191;-64
2023/10/10 01:41:54;;;;;;;9.10;5.93;;;;;;;-145.68;100.00;74001.53;10436280;28;20240;-65
2023/10/10 01:46:55;;;;;;;11.57;6.75;;;;;;;-145.68;100.00;74007.53;10437477;28;20215;-64
2023/10/10 01:51:55;;;;;;;13.18;8.30;;;;;;;-145.68;100.00;73987.53;10436574;28;20278;-67
2023/10/10 01:56:56;;;;;;;12.88;8.27;;;;;;;-145.68;100.00;73983.53;10436609;28;20611;-66
2023/10/10 02:01:58;;;;;;;14.15;9.38;;;;;;;-145.68;100.00;73981.53;10435701;28;20307;-64
2023/10/10 02:07:04;;;;;;;16.17;10.85;;;;;;;-145.68;100.00;73985.53;10435528;28;20219;-65
2023/10/10 02:12:12;;;;;;;14.50;10.82;;;;;;;-145.68;100.00;73977.53;10435601;28;20223;-67
2023/10/10 02:17:25;;;;;;;16.02;10.40;;;;;;;-145.68;100.00;73975.53;10436464;28;20808;-65
2023/10/10 02:27:56;;;;;;;21.48;14.18;;;;;;;-145.68;100.00;73991.53;10435816;28;20285;-67
2023/10/10 02:32:57;;;;;;;17.40;13.02;;;;;;;-145.68;100.00;73983.53;10435704;28;20211;-64
2023/10/10 02:38:03;;;;;;;22.75;12.63;;;;;;;-145.68;100.00;73993.53;10434144;28;20643;-64
2023/10/10 02:43:45;;;;;;;19.17;11.65;;;;;;;-145.68;100.00;73997.53;10380092;28;20719;-68
2023/10/10 02:48:49;;;;;;;18.35;12.15;;;;;;;-145.68;100.00;74011.53;10393015;28;20220;-67
2023/10/10 02:53:50;;;;;;;17.55;11.68;;;;;;;-145.68;100.00;74021.50;10393536;28;20578;-67
2023/10/10 02:58:54;;;;;;;15.55;12.05;;;;;;;-145.68;100.00;74019.50;10393290;28;20299;-66
2023/10/10 03:03:55;;;;;;;22.17;13.18;;;;;;;-145.68;100.00;74011.53;10391963;28;20204;-67
2023/10/10 03:09:12;;;;;;;25.10;17.63;;;;;;;-145.68;100.00;73999.53;10391221;28;20216;-67
2023/10/10 03:14:25;;;;;;;26.67;18.05;;;;;;;-145.68;100.00;74011.53;10381895;28;20196;-67
2023/10/10 03:19:27;;;;;;;24.13;18.98;;;;;;;-145.68;100.00;74007.53;10390786;28;20224;-67
2023/10/10 03:35:13;;;;;;;20.45;14.55;;;;;;;-145.68;100.00;74029.50;10383568;28;20694;-68
2023/10/10 05:27:05;;;;;;;31.50;15.18;;;;;;;-145.68;100.00;74057.50;10397783;28;20226;-68
2023/10/10 05:32:08;;;;;;;29.88;15.68;;;;;;;-145.68;100.00;74063.50;10399392;28;20216;-67
2023/10/10 05:37:09;;;;;;;33.85;16.33;;;;;;;-145.68;100.00;74059.50;10386738;28;20194;-67
2023/10/10 05:42:13;;;;;;;29.80;15.93;;;;;;;-145.68;100.00;74071.50;10383407;28;20248;-67
2023/10/10 05:47:16;;;;;;;24.73;15.38;;;;;;;-145.68;100.00;74071.50;10383864;28;20646;-67
2023/10/10 05:52:17;;;;;;;40.83;19.13;;;;;;;-145.68;100.00;74059.50;10383518;28;20223;-66
2023/10/10 05:57:18;;;;;;;36.58;18.33;;;;;;;-145.68;100.00;74057.50;10396154;28;20193;-67
2023/10/10 06:02:18;;;;;;;36.10;20.17;;;;;;;-145.68;100.00;74065.50;10398793;28;20233;-68
2023/10/10 06:07:20;;;;;;;37.65;19.90;;;;;;;-145.68;100.00;74073.50;10398244;28;20227;-66
2023/10/10 06:12:21;;;;;;;38.53;21.95;;;;;;;-145.68;100.00;74051.50;10394395;28;20217;-67
2023/10/10 06:17:21;;;;;;;46.88;23.70;;;;;;;-145.68;100.00;74063.50;10390433;28;20181;-67
2023/10/10 06:22:22;;;;;;;43.58;24.77;;;;;;;-145.68;100.00;74051.50;10398012;28;20239;-66
2023/10/10 06:27:28;;;;;;;54.08;26.83;;;;;;;-145.68;100.00;74069.50;10397417;28;20575;-66
2023/10/10 06:32:31;;;;;;;43.85;23.30;;;;;;;-145.68;100.00;74075.50;10397053;28;20213;-67
2023/10/10 06:37:35;;;;;;;47.40;23.55;;;;;;;-145.68;100.00;74067.50;10396901;28;20601;-67
2023/10/10 06:42:36;;;;;;;45.35;23.00;;;;;;;-145.68;100.00;74059.50;10396963;28;20239;-67
2023/10/10 06:47:39;;;;;;;47.72;24.08;;;;;;;-145.68;100.00;74059.50;10395164;28;20205;-67
2023/10/10 06:52:43;;;;;;;48.30;23.83;;;;;;;-145.68;100.00;74073.50;10391015;28;20821;-66
2023/10/10 06:57:51;;;;;;;51.33;25.08;;;;;;;-145.68;100.00;74081.47;10390659;28;20189;-66
2023/10/10 07:02:52;;;;;;;42.90;23.63;;;;;;;-145.68;100.00;74087.47;10394517;28;20710;-67
2023/10/10 07:08:12;;;;;;;45.60;24.35;;;;;;;-145.68;100.00;74075.50;10388957;28;20225;-66
2023/10/10 07:13:14;;;;;;;46.63;24.55;;;;;;;-145.68;100.00;74079.50;10386708;28;20669;-66
2023/10/10 07:18:14;;;;;;;46.10;24.98;;;;;;;-145.68;100.00;74057.50;10386668;28;20192;-66
2023/10/10 07:23:14;;;;;;;44.08;24.63;;;;;;;-145.68;100.00;74063.50;10382379;28;20193;-66
2023/10/10 07:28:17;;;;;;;45.92;22.52;;;;;;;-145.68;100.00;74051.50;10390811;28;20219;-67
2023/10/10 07:33:22;;;;;;;42.33;23.52;;;;;;;-145.68;100.00;74043.50;10392420;28;20279;-66
2023/10/10 07:38:27;;;;;;;45.78;22.30;;;;;;;-145.68;100.00;74059.50;10393148;28;20263;-65
2023/10/10 07:43:28;;;;;;;43.72;21.83;;;;;;;-145.68;100.00;74043.50;10393664;28;20581;-66
2023/10/10 07:53:34;;;;;;;38.88;19.52;;;;;;;-145.68;100.00;74019.50;10390822;28;20622;-66
2023/10/10 07:58:43;;;;;;;39.53;20.67;;;;;;;-145.68;100.00;74011.53;10391264;28;20212;-66
2023/10/10 08:03:45;;;;;;;31.00;17.13;;;;;;;-145.68;100.00;73979.53;10392784;28;20243;-66
2023/10/10 08:08:48;;;;;;;22.48;14.90;;;;;;;-145.68;100.00;73989.53;10392262;28;20699;-66
2023/10/10 08:13:49;;;;;;;26.90;13.43;;;;;;;-145.68;100.00;73939.56;10392328;28;20197;-66
2023/10/10 08:18:52;;;;;;;22.50;11.88;;;;;;;-145.68;100.00;73917.56;10381329;28;20209;-65
2023/10/10 08:23:59;;;;;;;16.17;10.65;;;;;;;-145.68;100.00;73907.56;10385405;28;20204;-66
2023/10/10 08:28:59;;;;;;;23.40;11.77;;;;;;;-145.68;100.00;73943.56;10387674;28;20222;-66
2023/10/10 08:34:00;;;;;;;21.35;10.68;;;;;;;-145.68;100.00;73905.56;10392010;28;20188;-65
2023/10/10 08:44:17;;;;;;;13.70;8.75;;;;;;;-145.68;100.00;73793.63;10392186;28;20259;-66
2023/10/10 08:49:18;;;;;;;14.63;8.10;;;;;;;-145.68;100.00;73767.66;10391895;28;20248;-66
2023/10/10 08:54:20;;;;;;;12.93;7.60;;;;;;;-145.68;100.00;73739.66;10392053;28;20198;-66
2023/10/10 08:59:20;;;;;;;11.45;7.32;;;;;;;-145.68;100.00;73689.69;10389377;28;20270;-66
2023/10/10 09:04:27;;;;;;;13.10;7.60;;;;;;;-145.68;100.00;73683.69;10399552;28;20646;-66
2023/10/10 09:09:33;;;;;;;9.25;7.10;;;;;;;-145.68;100.00;73655.69;10399568;28;20228;-66
2023/10/10 09:14:49;;;;;;;10.68;7.72;;;;;;;-145.68;100.00;73679.69;10399878;28;20318;-66
2023/10/10 09:19:50;;;;;;;18.85;7.55;;;;;;;-145.68;100.00;73733.66;10399091;28;20599;-66
2023/10/10 09:24:50;;;;;;;10.35;7.78;;;;;;;-145.68;100.00;73697.69;10398903;28;20278;-66
2023/10/10 09:29:55;;;;;;;13.52;7.50;;;;;;;-145.68;100.00;73687.69;10394051;28;20219;-66
2023/10/10 09:34:58;;;;;;;9.00;7.90;;;;;;;-145.68;100.00;73645.72;10392081;28;20212;-66
2023/10/10 09:39:59;;;;;;;12.60;8.00;;;;;;;-145.68;100.00;73559.75;10397814;28;20237;-64
2023/10/10 09:50:29;;;;;;;16.02;9.38;;;;;;;-145.68;100.00;73615.72;10379420;28;20216;-66
2023/10/10 10:00:32;;;;;;;11.73;8.25;;;;;;;-145.68;89.46;73457.81;10397686;28;20225;-66
2023/10/10 10:05:34;;;;;;;11.18;8.98;;;;;;;-145.68;89.37;73521.78;10394229;28;20256;-67
2023/10/10 10:10:48;;;;;;;11.32;7.85;;;;;;;-145.68;86.13;73435.84;10379701;28;20221;-66
2023/10/10 10:15:53;;;;;;;10.48;7.65;;;;;;;-145.68;84.31;73401.84;10380086;28;20203;-66
2023/10/10 10:26:21;;;;;;;9.18;6.35;;;;;;;-145.68;80.32;73389.88;10396559;28;20251;-67
2023/10/10 10:31:29;;;;;;;11.52;7.25;;;;;;;-145.68;78.19;73509.78;10396348;28;20209;-66
2023/10/10 10:36:29;;;;;;;9.75;6.78;;;;;;;-145.68;78.44;73379.88;10393843;28;20197;-66
2023/10/10 10:41:41;;;;;;;17.25;7.32;;;;;;;-145.68;74.64;73387.88;10376033;28;20242;-67
2023/10/10 10:46:47;;;;;;;10.20;6.20;;;;;;;-145.68;73.21;73351.88;10393701;28;20729;-67
2023/10/10 10:51:52;;;;;;;12.93;5.43;;;;;;;-145.68;69.74;73271.94;10386123;28;20212;-67
2023/10/10 10:56:52;;;;;;;13.30;7.10;;;;;;;-145.68;67.33;73231.97;10395815;28;20200;-67
2023/10/10 11:01:55;;;;;;;7.82;5.50;;;;;;;-145.68;66.35;73112.03;10394659;28;20293;-68
2023/10/10 11:06:59;;;;;;;9.63;6.07;;;;;;;-145.68;67.10;73192.00;10393453;28;20255;-69
2023/10/10 11:12:02;;;;;;;7.13;4.82;;;;;;;-145.68;63.96;73046.09;10394043;28;20228;-69
2023/10/10 11:17:02;;;;;;;10.82;5.78;;;;;;;-145.68;63.11;73026.09;10394823;28;20200;-69
2023/10/10 11:22:12;;;;;;;7.68;4.95;;;;;;;-145.68;61.34;72952.16;10386929;28;20208;-69
2023/10/10 11:32:15;;;;;;;9.27;5.63;;;;;;;-145.68;61.80;73012.13;10392679;28;20270;-69
2023/10/10 11:37:20;;;;;;;13.40;6.25;;;;;;;-145.68;57.85;72834.25;10394055;28;20192;-69
2023/10/10 11:42:33;;;;;;;10.70;6.03;;;;;;;-145.68;56.55;72892.22;10384484;28;20236;-69
2023/10/10 11:47:42;;;;;;;14.70;5.95;;;;;;;-145.68;58.00;72956.16;10392965;28;20256;-68
2023/10/10 11:52:58;;;;;;;9.55;5.82;;;;;;;-145.68;54.56;72816.25;10392312;28;20460;-70
2023/10/10 11:58:06;;;;;;;10.20;5.82;;;;;;;-145.68;52.24;72858.22;10392497;28;20188;-69
2023/10/10 12:03:06;;;;;;;10.57;6.53;;;;;;;-145.68;54.63;72890.22;10393458;28;20569;-69
2023/10/10 12:08:07;;;;;;;8.32;5.47;;;;;;;-145.68;57.90;73010.13;10392899;28;20220;-69
2023/10/10 12:13:09;;;;;;;11.73;6.38;;;;;;;-145.68;60.18;73084.06;10391651;28;20188;-69
2023/10/10 12:18:10;;;;;;;10.23;6.05;;;;;;;-145.68;59.82;73186.00;10393159;28;20196;-68
2023/10/10 12:23:11;;;;;;;10.05;5.88;;;;;;;-145.68;65.03;73192.00;10392417;28;20338;-67
2023/10/10 12:28:13;;;;;;;9.77;5.30;;;;;;;-145.68;64.22;73162.00;10392777;28;20247;-67
2023/10/10 12:33:15;;;;;;;8.05;5.68;;;;;;;-145.68;60.99;73056.09;10394047;28;20205;-68
2023/10/10 12:38:23;;;;;;;12.65;6.70;;;;;;;-145.68;62.05;73140.03;10400501;28;20195;-69
2023/10/10 12:43:24;;;;;;;9.40;6.05;;;;;;;-145.68;58.75;72908.19;10393009;28;20193;-68
2023/10/10 12:48:24;;;;;;;11.18;5.85;;;;;;;-145.68;56.68;72892.22;10374839;28;20231;-70
2023/10/10 12:53:30;;;;;;;10.70;5.50;;;;;;;-145.68;55.29;72788.28;10396396;28;20683;-69
2023/10/10 12:58:31;;;;;;;9.45;6.38;;;;;;;-145.68;54.19;72812.28;10387159;28;20712;-69
2023/10/10 13:03:31;;;;;;;10.50;5.90;;;;;;;-145.68;55.69;72940.16;10392171;28;20193;-69
2023/10/10 13:08:38;;;;;;;13.63;6.72;;;;;;;-145.68;63.74;73211.97;10394967;28;20240;-69
2023/10/10 13:13:45;;;;;;;12.70;6.20;;;;;;;-145.68;62.62;73176.00;10391686;28;20363;-68
2023/10/10 13:18:45;;;;;;;15.45;6.85;;;;;;;-145.68;59.79;73054.09;10395595;28;20212;-67
2023/10/10 13:23:47;;;;;;;18.80;6.30;;;;;;;-145.68;60.44;73088.06;10398379;28;20189;-67
2023/10/10 13:28:48;;;;;;;12.27;7.35;;;;;;;-145.68;63.73;73180.00;10380070;28;20228;-66
2023/10/10 13:33:49;;;;;;;12.73;8.55;;;;;;;-145.68;67.63;73227.97;10396553;28;20671;-66
2023/10/10 13:38:50;;;;;;;10.02;6.68;;;;;;;-145.68;68.32;73259.94;10371362;28;20236;-67
2023/10/10 13:43:52;;;;;;;18.15;7.68;;;;;;;-145.68;72.10;73327.91;10389081;28;20200;-66
2023/10/10 13:48:52;;;;;;;14.23;7.80;;;;;;;-145.68;72.77;73313.91;10371085;28;20354;-66
2023/10/10 13:53:56;;;;;;;11.65;7.63;;;;;;;-145.68;72.11;73279.94;10394415;28;20286;-67
2023/10/10 13:58:57;;;;;;;12.50;7.57;;;;;;;-145.68;75.10;73325.91;10393706;28;20599;-66
2023/10/10 14:04:04;;;;;;;11.57;6.95;;;;;;;-145.68;75.86;73291.94;10392988;28;20192;-66
2023/10/10 14:09:04;;;;;;;14.90;7.40;;;;;;;-145.68;74.09;73273.94;10394087;28;20225;-67
2023/10/10 14:14:06;;;;;;;13.57;7.43;;;;;;;-145.68;72.23;73182.00;10394828;28;20199;-68
2023/10/10 14:19:07;;;;;;;13.93;8.02;;;;;;;-145.68;71.57;73211.97;10392977;28;20323;-67
2023/10/10 14:24:08;;;;;;;10.93;7.30;;;;;;;-145.68;72.95;73233.97;10393769;28;20580;-67
2023/10/10 14:29:12;;;;;;;12.27;7.10;;;;;;;-145.68;73.74;73213.97;10394014;28;20319;-67
2023/10/10 14:34:24;;;;;;;14.45;6.72;;;;;;;-145.68;72.36;73190.00;10393951;28;20224;-68
2023/10/10 14:39:59;;;;;;;13.55;7.57;;;;;;;-145.68;73.41;73223.97;10385961;28;20322;-67
2023/10/10 14:44:53;;;;;;;10.27;7.32;;;;;;;-145.68;75.14;73192.00;10387049;28;20232;-67
2023/10/10 14:50:06;;;;;;;12.32;7.07;;;;;;;-145.68;69.43;73116.03;10386964;28;20213;-67
2023/10/10 14:55:23;;;;;;;13.75;7.38;;;;;;;-145.68;71.72;73207.97;10369889;28;20252;-67
2023/10/10 15:00:29;;;;;;;13.05;6.50;;;;;;;-145.68;66.88;73060.09;10388173;28;20675;-68
2023/10/10 15:05:32;;;;;;;13.20;6.35;;;;;;;-145.68;66.13;73066.09;10392218;28;20209;-68
2023/10/10 15:10:37;;;;;;;9.98;6.25;;;;;;;-145.68;67.79;73150.03;10377930;28;20232;-67
2023/10/10 15:15:40;;;;;;;11.65;5.82;;;;;;;-145.68;67.97;73124.03;10386956;28;20544;-67
2023/10/10 15:20:46;;;;;;;16.30;6.72;;;;;;;-145.68;70.17;73231.97;10391878;28;20244;-68
2023/10/10 15:25:52;;;;;;;10.68;6.25;;;;;;;-145.68;74.42;73247.97;10387556;28;20216;-68
2023/10/10 15:30:52;;;;;;;10.25;6.15;;;;;;;-145.68;75.95;73279.94;10389102;28;20212;-68
2023/10/10 15:35:53;;;;;;;13.80;5.63;;;;;;;-145.68;77.34;73311.91;10392018;28;20200;-68
2023/10/10 15:40:53;;;;;;;8.63;6.13;;;;;;;-145.68;79.50;73331.91;10390974;28;21057;-67
2023/10/10 15:45:56;;;;;;;10.02;6.43;;;;;;;-145.68;83.47;73369.88;10391314;28;20228;-68
2023/10/10 15:50:59;;;;;;;7.90;5.80;;;;;;;-145.68;86.99;73401.84;10391456;28;20212;-68
2023/10/10 15:56:10;;;;;;;13.23;7.35;;;;;;;-145.68;89.27;73427.84;10388486;28;20537;-68
2023/10/10 16:01:21;;;;;;;12.50;7.03;;;;;;;-145.68;92.71;73433.84;10391336;28;20217;-68
2023/10/10 16:06:23;;;;;;;54.38;26.48;;;;;;;-145.68;97.67;73469.81;10389396;28;20699;-68
2023/10/10 16:11:31;;;;;;;15.43;8.98;;;;;;;-145.68;99.55;73471.81;10387807;28;20688;-68
2023/10/10 16:16:31;;;;;;;16.90;11.02;;;;;;;-145.68;98.47;73467.81;10388478;28;20603;-69
2023/10/10 16:21:32;;;;;;;12.40;7.18;;;;;;;-145.68;100.00;73469.81;10388664;28;20221;-69
2023/10/10 16:26:32;;;;;;;9.70;7.57;;;;;;;-145.68;100.00;73475.81;10389025;28;20604;-68
2023/10/10 16:31:34;;;;;;;10.90;7.15;;;;;;;-145.68;100.00;73487.81;10383900;28;20223;-68
2023/10/10 16:36:35;;;;;;;12.05;6.63;;;;;;;-145.68;100.00;73483.81;10388588;28;20228;-68
2023/10/10 16:41:35;;;;;;;10.57;6.70;;;;;;;-145.68;100.00;73495.78;10385388;28;20331;-68
2023/10/10 16:46:38;;;;;;;12.38;7.00;;;;;;;-145.68;100.00;73503.78;10391665;28;20236;-68
2023/10/10 16:51:38;;;;;;;10.25;6.07;;;;;;;-145.68;100.00;73507.78;10391815;28;20220;-68
2023/10/10 16:56:40;;;;;;;10.32;6.60;;;;;;;-145.68;100.00;73495.78;10391645;28;20582;-68
2023/10/10 17:01:42;;;;;;;9.35;6.22;;;;;;;-145.68;100.00;73485.81;10391727;28;20225;-68
2023/10/10 17:06:42;;;;;;;10.50;5.78;;;;;;;-145.68;100.00;73489.81;10391425;28;20205;-68
2023/10/10 17:11:44;;;;;;;11.75;5.70;;;;;;;-145.68;100.00;73481.81;10391207;28;20212;-68
2023/10/10 17:16:44;;;;;;;9.00;5.72;;;;;;;-145.68;100.00;73491.81;10388995;28;20614;-68
2023/10/10 17:21:48;;;;;;;11.52;6.05;;;;;;;-145.68;100.00;73471.81;10390870;28;20224;-68
2023/10/10 17:26:48;;;;;;;10.27;6.00;;;;;;;-145.68;98.55;73461.81;10381024;28;20228;-68
2023/10/10 17:31:52;;;;;;;14.35;5.25;;;;;;;-145.68;96.41;73453.81;10399316;28;20714;-68
2023/10/10 17:36:57;;;;;;;11.68;6.18;;;;;;;-145.68;95.51;73457.81;10398123;28;20196;-68
2023/10/10 17:41:58;;;;;;;12.63;5.65;;;;;;;-145.68;95.46;73445.81;10399270;28;20236;-68
2023/10/10 17:46:58;;;;;;;13.90;6.70;;;;;;;-145.68;93.83;73437.84;10389204;28;20716;-68
2023/10/10 17:51:58;;;;;;;8.23;5.45;;;;;;;-145.68;95.23;73443.84;10399305;28;20220;-68
2023/10/10 17:56:59;;;;;;;12.45;6.82;;;;;;;-145.68;93.76;73443.84;10398701;28;20211;-68
2023/10/10 18:01:59;;;;;;;15.77;5.80;;;;;;;-145.68;93.97;73433.84;10399601;28;20220;-68
2023/10/10 18:07:00;;;;;;;13.95;5.30;;;;;;;-145.68;93.69;73431.84;10399051;28;20224;-68
2023/10/10 18:12:00;;;;;;;10.55;4.82;;;;;;;-145.68;92.58;73419.84;10399355;28;20216;-68
2023/10/10 18:17:05;;;;;;;13.20;6.05;;;;;;;-145.68;90.14;73403.84;10399107;28;20337;-68
2023/10/10 18:22:06;;;;;;;15.80;7.50;;;;;;;-145.68;88.53;73397.84;10398302;28;21062;-68
2023/10/10 18:27:06;;;;;;;16.00;6.35;;;;;;;-145.68;84.65;73373.88;10398488;28;20220;-68
2023/10/10 18:32:07;;;;;;;14.10;4.22;;;;;;;-145.68;80.54;73339.91;10397374;28;20710;-68
2023/10/10 18:37:08;;;;;;;17.83;4.70;;;;;;;-145.68;78.11;73331.91;10398170;28;20197;-68
2023/10/10 18:42:09;;;;;;;12.52;4.50;;;;;;;-145.68;77.29;73333.91;10394680;28;20786;-68
2023/10/10 18:47:10;;;;;;;10.63;4.45;;;;;;;-145.68;76.02;73329.91;10389546;28;20225;-68
2023/10/10 18:52:12;;;;;;;11.18;4.10;;;;;;;-145.68;75.44;73329.91;10389383;28;20303;-68
2023/10/10 18:57:12;;;;;;;17.27;5.95;;;;;;;-145.68;75.09;73343.88;10384449;28;20271;-68
2023/10/10 19:02:12;;;;;;;12.88;3.38;;;;;;;-145.68;73.94;73319.91;10391669;28;20303;-67
2023/10/10 19:07:13;;;;;;;14.75;3.72;;;;;;;-145.68;75.36;73345.88;10396720;28;20223;-68
2023/10/10 19:12:16;;;;;;;18.13;5.35;;;;;;;-145.68;74.68;73347.88;10396792;28;20695;-68
2023/10/10 19:17:16;;;;;;;15.02;3.63;;;;;;;-145.68;75.56;73359.88;10396998;28;20204;-68
2023/10/10 19:22:17;;;;;;;10.35;3.83;;;;;;;-145.68;75.72;73357.88;10396092;28;20212;-68
2023/10/10 19:27:20;;;;;;;12.13;4.70;;;;;;;-145.68;76.52;73367.88;10396100;28;20231;-68
2023/10/10 19:32:21;;;;;;;15.88;4.65;;;;;;;-145.68;76.28;73375.88;10395741;28;20216;-68
2023/10/10 19:37:21;;;;;;;11.90;4.78;;;;;;;-145.68;76.31;73371.88;10395915;28;20189;-68
2023/10/10 19:42:22;;;;;;;13.80;4.10;;;;;;;-145.68;76.43;73383.88;10394804;28;20315;-68
2023/10/10 19:47:25;;;;;;;16.25;3.97;;;;;;;-145.68;76.15;73383.88;10395131;28;20217;-68
2023/10/10 19:52:25;;;;;;;14.75;4.43;;;;;;;-145.68;76.41;73407.84;10395493;28;20216;-68
2023/10/10 19:57:26;;;;;;;14.80;3.95;;;;;;;-145.68;76.51;73391.84;10394888;28;20193;-69
2023/10/10 20:02:26;;;;;;;12.00;3.78;;;;;;;-145.68;76.57;73393.84;10394928;28;20219;-68
2023/10/10 20:07:27;;;;;;;13.63;3.67;;;;;;;-145.68;76.28;73385.88;10394556;28;20225;-68
2023/10/10 20:12:28;;;;;;;14.00;4.38;;;;;;;-145.68;76.68;73401.84;10394605;28;20216;-68
2023/10/10 20:17:28;;;;;;;10.60;4.10;;;;;;;-145.68;76.22;73403.84;10394133;28;20250;-69
2023/10/10 20:22:32;;;;;;;11.40;4.43;;;;;;;-145.68;75.12;73399.84;10394428;28;20655;-68
2023/10/10 20:27:32;;;;;;;14.77;3.83;;;;;;;-145.68;73.72;73391.84;10394812;28;20255;-68
2023/10/10 20:32:34;;;;;;;13.23;3.80;;;;;;;-145.68;71.69;73383.88;10394450;28;20316;-68
2023/10/10 20:37:37;;;;;;;13.18;5.20;;;;;;;-145.68;70.86;73371.88;10394050;28;20631;-68
2023/10/10 20:42:42;;;;;;;11.00;4.13;;;;;;;-145.68;69.58;73347.88;10394775;28;20291;-68
2023/10/10 20:47:43;;;;;;;15.00;4.00;;;;;;;-145.68;69.31;73361.88;10394429;28;20251;-68
2023/10/10 20:52:43;;;;;;;8.73;4.07;;;;;;;-145.68;68.37;73359.88;10394671;28;20208;-68
2023/10/10 20:57:44;;;;;;;17.60;4.18;;;;;;;-145.68;65.31;73311.91;10401054;28;20196;-68
2023/10/10 21:02:48;;;;;;;15.07;4.07;;;;;;;-145.68;63.73;73287.94;10384944;28;20215;-68
2023/10/10 21:07:49;;;;;;;11.50;4.47;;;;;;;-145.68;62.94;73283.94;10401993;28;20224;-68
2023/10/10 21:12:52;;;;;;;9.43;3.65;;;;;;;-145.68;62.53;73285.94;10401847;28;20222;-68
2023/10/10 21:17:53;;;;;;;12.32;4.53;;;;;;;-145.68;61.36;73269.94;10401391;28;20188;-68
2023/10/10 21:22:57;;;;;;;9.05;3.97;;;;;;;-145.68;61.25;73277.94;10401728;28;20722;-68
2023/10/10 21:27:58;;;;;;;10.75;4.13;;;;;;;-145.68;59.98;73259.94;10402369;28;20228;-68
2023/10/10 21:32:58;;;;;;;12.30;5.05;;;;;;;-145.68;60.86;73305.91;10395379;28;20224;-68
2023/10/10 21:37:58;;;;;;;10.63;4.57;;;;;;;-145.68;59.27;73275.94;10400993;28;20196;-68
2023/10/10 21:42:59;;;;;;;17.95;4.78;;;;;;;-145.68;59.76;73305.91;10402022;28;20244;-68
2023/10/10 21:48:03;;;;;;;7.65;3.95;;;;;;;-145.68;58.60;73293.94;10400648;28;20266;-68
2023/10/10 21:53:03;;;;;;;12.73;3.67;;;;;;;-145.68;58.89;73295.94;10397951;28;20217;-68
2023/10/10 21:58:04;;;;;;;8.05;4.32;;;;;;;-145.68;59.24;73325.91;10397866;28;20205;-68
2023/10/10 22:03:05;;;;;;;12.30;4.38;;;;;;;-145.68;59.09;73327.91;10400569;28;20625;-68
2023/10/10 22:08:06;;;;;;;8.27;3.92;;;;;;;-145.68;58.41;73311.91;10399485;28;20230;-68
2023/10/10 22:13:06;;;;;;;12.50;4.53;;;;;;;-145.68;58.62;73333.91;10394878;28;20224;-68
2023/10/10 22:18:06;;;;;;;11.98;4.07;;;;;;;-145.68;59.68;73359.88;10399928;28;20219;-68
2023/10/10 22:23:08;;;;;;;13.18;4.32;;;;;;;-145.68;59.27;73343.88;10398398;28;20201;-68
2023/10/10 22:28:09;;;;;;;7.43;4.10;;;;;;;-145.68;58.35;73313.91;10399053;28;20216;-68
2023/10/10 22:33:10;;;;;;;11.00;4.78;;;;;;;-145.68;59.02;73333.91;10399225;28;20201;-68
2023/10/10 22:38:12;;;;;;;9.27;3.72;;;;;;;-145.68;58.23;73311.91;10396425;28;20192;-68
2023/10/10 22:43:15;;;;;;;11.77;4.53;;;;;;;-145.68;58.09;73321.91;10399058;28;20211;-68
2023/10/10 22:48:15;;;;;;;9.73;4.40;;;;;;;-145.68;57.93;73321.91;10398319;28;20275;-68
2023/10/10 22:53:15;;;;;;;10.80;4.60;;;;;;;-145.68;57.73;73319.91;10394448;28;20655;-68
2023/10/10 22:58:20;;;;;;;11.23;4.28;;;;;;;-145.68;58.28;73343.88;10398056;28;20651;-68
2023/10/10 23:03:22;;;;;;;9.73;4.13;;;;;;;-145.68;57.46;73313.91;10396877;28;20217;-68
2023/10/10 23:08:23;;;;;;;10.77;3.67;;;;;;;-145.68;57.72;73325.91;10390498;28;20228;-68
2023/10/10 23:13:23;;;;;;;12.27;4.35;;;;;;;-145.68;57.69;73329.91;10397428;28;20296;-68
2023/10/10 23:18:23;;;;;;;11.55;4.70;;;;;;;-145.68;57.53;73347.88;10392277;28;20189;-68
2023/10/10 23:23:26;;;;;;;8.70;4.25;;;;;;;-145.68;58.31;73363.88;10397321;28;20201;-68
2023/10/10 23:28:27;;;;;;;9.82;4.22;;;;;;;-145.68;58.85;73389.88;10396594;28;20227;-69
2023/10/10 23:33:28;;;;;;;10.90;4.50;;;;;;;-145.68;58.10;73355.88;10393884;28;20546;-68
2023/10/10 23:38:28;;;;;;;11.10;4.35;;;;;;;-145.68;58.25;73363.88;10396299;28;20785;-68
2023/10/10 23:43:28;;;;;;;8.70;4.43;;;;;;;-145.68;58.47;73373.88;10394778;28;20197;-68
2023/10/10 23:48:29;;;;;;;15.48;4.97;;;;;;;-145.68;58.29;73379.88;10396049;28;20651;-67
2023/10/10 23:53:29;;;;;;;10.48;4.07;;;;;;;-145.68;57.56;73369.88;10386407;28;20201;-67
2023/10/10 23:58:29;;;;;;;11.10;4.90;;;;;;;-145.68;58.10;73401.84;10395907;28;20208;-67
